sensor_id;sensor_type;location;lat;lon;timestamp;temperature;humidity
212;DHT22;16228;48.800;9.002;2023-05-27T00:00:44;13.30;96.90
212;DHT22;16228;48.800;9.002;2023-05-27T00:03:11;13.30;96.90
212;DHT22;16228;48.800;9.002;2023-05-27T00:05:38;13.20;96.90
212;DHT22;16228;48.800;9.002;2023-05-27T00:08:07;13.30;96.90
212;DHT22;16228;48.800;9.002;2023-05-27T00:10:34;13.30;96.90
212;DHT22;16228;48.800;9.002;2023-05-27T00:13:01;13.30;96.90
212;DHT22;16228;48.800;9.002;2023-05-27T00:15:28;13.40;96.90
212;DHT22;16228;48.800;9.002;2023-05-27T00:17:57;13.40;96.90
212;DHT22;16228;48.800;9.002;2023-05-27T00:20:25;13.50;96.90
212;DHT22;16228;48.800;9.002;2023-05-27T00:22:53;13.60;96.90
212;DHT22;16228;48.800;9.002;2023-05-27T00:25:21;13.70;96.90
212;DHT22;16228;48.800;9.002;2023-05-27T00:27:49;13.70;96.90
212;DHT22;16228;48.800;9.002;2023-05-27T00:30:16;13.80;96.90
212;DHT22;16228;48.800;9.002;2023-05-27T00:32:43;13.80;96.90
212;DHT22;16228;48.800;9.002;2023-05-27T00:35:10;13.90;96.90
212;DHT22;16228;48.800;9.002;2023-05-27T00:37:37;13.90;96.90
212;DHT22;16228;48.800;9.002;2023-05-27T00:40:08;13.90;96.90
212;DHT22;16228;48.800;9.002;2023-05-27T00:42:37;13.80;96.90
212;DHT22;16228;48.800;9.002;2023-05-27T00:45:06;13.80;96.90
212;DHT22;16228;48.800;9.002;2023-05-27T00:47:34;13.80;96.90
212;DHT22;16228;48.800;9.002;2023-05-27T00:50:03;13.70;96.90
212;DHT22;16228;48.800;9.002;2023-05-27T00:52:30;13.70;96.90
212;DHT22;16228;48.800;9.002;2023-05-27T00:54:58;13.50;96.90
212;DHT22;16228;48.800;9.002;2023-05-27T00:57:26;13.40;96.90
212;DHT22;16228;48.800;9.002;2023-05-27T00:59:54;13.40;96.90
212;DHT22;16228;48.800;9.002;2023-05-27T01:02:21;13.30;96.90
212;DHT22;16228;48.800;9.002;2023-05-27T01:04:50;13.20;96.90
212;DHT22;16228;48.800;9.002;2023-05-27T01:07:22;13.10;96.90
212;DHT22;16228;48.800;9.002;2023-05-27T01:09:58;13.00;96.90
212;DHT22;16228;48.800;9.002;2023-05-27T01:12:34;13.00;96.90
212;DHT22;16228;48.800;9.002;2023-05-27T01:15:05;12.90;96.90
212;DHT22;16228;48.800;9.002;2023-05-27T01:17:34;12.80;96.90
212;DHT22;16228;48.800;9.002;2023-05-27T01:20:04;12.70;96.90
212;DHT22;16228;48.800;9.002;2023-05-27T01:22:33;12.70;96.90
212;DHT22;16228;48.800;9.002;2023-05-27T01:25:02;12.60;96.90
212;DHT22;16228;48.800;9.002;2023-05-27T01:27:29;12.50;96.90
212;DHT22;16228;48.800;9.002;2023-05-27T01:29:58;12.50;96.90
212;DHT22;16228;48.800;9.002;2023-05-27T01:32:34;12.30;96.90
212;DHT22;16228;48.800;9.002;2023-05-27T01:35:09;12.20;96.90
212;DHT22;16228;48.800;9.002;2023-05-27T01:37:41;12.10;96.90
212;DHT22;16228;48.800;9.002;2023-05-27T01:40:09;12.00;96.90
212;DHT22;16228;48.800;9.002;2023-05-27T01:42:39;12.00;96.90
212;DHT22;16228;48.800;9.002;2023-05-27T01:45:08;12.00;96.90
212;DHT22;16228;48.800;9.002;2023-05-27T01:47:35;11.90;96.90
212;DHT22;16228;48.800;9.002;2023-05-27T01:50:03;11.80;96.90
212;DHT22;16228;48.800;9.002;2023-05-27T01:52:31;11.80;96.90
212;DHT22;16228;48.800;9.002;2023-05-27T01:54:59;11.80;96.90
212;DHT22;16228;48.800;9.002;2023-05-27T01:57:26;11.60;96.90
212;DHT22;16228;48.800;9.002;2023-05-27T01:59:54;11.60;96.90
212;DHT22;16228;48.800;9.002;2023-05-27T02:02:21;11.50;96.90
212;DHT22;16228;48.800;9.002;2023-05-27T02:04:48;11.50;96.90
212;DHT22;16228;48.800;9.002;2023-05-27T02:07:15;11.40;96.90
212;DHT22;16228;48.800;9.002;2023-05-27T02:09:45;11.40;96.90
212;DHT22;16228;48.800;9.002;2023-05-27T02:12:14;11.30;96.90
212;DHT22;16228;48.800;9.002;2023-05-27T02:14:41;11.20;96.90
212;DHT22;16228;48.800;9.002;2023-05-27T02:17:08;11.10;96.90
212;DHT22;16228;48.800;9.002;2023-05-27T02:19:35;11.10;96.90
212;DHT22;16228;48.800;9.002;2023-05-27T02:22:03;11.10;96.90
212;DHT22;16228;48.800;9.002;2023-05-27T02:24:30;11.00;96.90
212;DHT22;16228;48.800;9.002;2023-05-27T02:26:57;11.00;96.90
212;DHT22;16228;48.800;9.002;2023-05-27T02:29:26;11.00;96.90
212;DHT22;16228;48.800;9.002;2023-05-27T02:31:53;10.90;96.90
212;DHT22;16228;48.800;9.002;2023-05-27T02:34:20;10.90;96.90
212;DHT22;16228;48.800;9.002;2023-05-27T02:36:47;10.80;96.90
212;DHT22;16228;48.800;9.002;2023-05-27T02:39:15;10.80;96.90
212;DHT22;16228;48.800;9.002;2023-05-27T02:41:42;10.70;96.90
212;DHT22;16228;48.800;9.002;2023-05-27T02:44:09;10.70;96.90
212;DHT22;16228;48.800;9.002;2023-05-27T02:46:38;10.70;96.90
212;DHT22;16228;48.800;9.002;2023-05-27T02:49:05;10.60;96.90
212;DHT22;16228;48.800;9.002;2023-05-27T02:51:32;10.60;96.90
212;DHT22;16228;48.800;9.002;2023-05-27T02:54:00;10.50;96.90
212;DHT22;16228;48.800;9.002;2023-05-27T02:56:28;10.50;96.90
212;DHT22;16228;48.800;9.002;2023-05-27T02:58:55;10.50;96.90
212;DHT22;16228;48.800;9.002;2023-05-27T03:01:22;10.50;96.90
212;DHT22;16228;48.800;9.002;2023-05-27T03:03:50;10.40;96.90
212;DHT22;16228;48.800;9.002;2023-05-27T03:06:18;10.40;96.90
212;DHT22;16228;48.800;9.002;2023-05-27T03:08:45;10.50;96.90
212;DHT22;16228;48.800;9.002;2023-05-27T03:11:13;10.40;96.90
212;DHT22;16228;48.800;9.002;2023-05-27T03:13:40;10.40;96.90
212;DHT22;16228;48.800;9.002;2023-05-27T03:16:07;10.30;96.90
212;DHT22;16228;48.800;9.002;2023-05-27T03:18:34;10.30;96.90
212;DHT22;16228;48.800;9.002;2023-05-27T03:21:03;10.30;96.90
212;DHT22;16228;48.800;9.002;2023-05-27T03:23:30;10.30;96.90
212;DHT22;16228;48.800;9.002;2023-05-27T03:25:57;10.20;96.90
212;DHT22;16228;48.800;9.002;2023-05-27T03:28:25;10.20;96.90
212;DHT22;16228;48.800;9.002;2023-05-27T03:30:52;10.20;96.90
212;DHT22;16228;48.800;9.002;2023-05-27T03:33:22;10.20;96.90
212;DHT22;16228;48.800;9.002;2023-05-27T03:35:49;10.20;96.90
212;DHT22;16228;48.800;9.002;2023-05-27T03:38:17;10.20;96.90
212;DHT22;16228;48.800;9.002;2023-05-27T03:40:45;10.10;96.90
212;DHT22;16228;48.800;9.002;2023-05-27T03:43:12;10.10;96.90
212;DHT22;16228;48.800;9.002;2023-05-27T03:45:39;10.10;96.90
212;DHT22;16228;48.800;9.002;2023-05-27T03:48:06;10.10;96.90
212;DHT22;16228;48.800;9.002;2023-05-27T03:50:34;10.10;96.90
212;DHT22;16228;48.800;9.002;2023-05-27T03:53:01;10.10;96.90
212;DHT22;16228;48.800;9.002;2023-05-27T03:55:29;10.10;96.90
212;DHT22;16228;48.800;9.002;2023-05-27T03:57:56;10.10;96.90
212;DHT22;16228;48.800;9.002;2023-05-27T04:00:24;10.10;96.90
212;DHT22;16228;48.800;9.002;2023-05-27T04:02:51;10.10;96.90
212;DHT22;16228;48.800;9.002;2023-05-27T04:05:18;10.20;96.90
212;DHT22;16228;48.800;9.002;2023-05-27T04:07:45;10.20;96.90
212;DHT22;16228;48.800;9.002;2023-05-27T04:10:12;10.20;96.90
212;DHT22;16228;48.800;9.002;2023-05-27T04:12:41;10.20;96.90
212;DHT22;16228;48.800;9.002;2023-05-27T04:15:09;10.20;96.90
212;DHT22;16228;48.800;9.002;2023-05-27T04:17:36;10.30;96.90
212;DHT22;16228;48.800;9.002;2023-05-27T04:20:04;10.30;96.90
212;DHT22;16228;48.800;9.002;2023-05-27T04:22:39;10.30;96.90
212;DHT22;16228;48.800;9.002;2023-05-27T04:25:07;10.30;96.90
212;DHT22;16228;48.800;9.002;2023-05-27T04:27:34;10.30;96.90
212;DHT22;16228;48.800;9.002;2023-05-27T04:30:04;10.40;96.90
212;DHT22;16228;48.800;9.002;2023-05-27T04:32:32;10.40;96.90
212;DHT22;16228;48.800;9.002;2023-05-27T04:35:04;10.50;96.90
212;DHT22;16228;48.800;9.002;2023-05-27T04:37:33;10.50;96.90
212;DHT22;16228;48.800;9.002;2023-05-27T04:40:02;10.50;96.90
212;DHT22;16228;48.800;9.002;2023-05-27T04:42:31;10.60;96.90
212;DHT22;16228;48.800;9.002;2023-05-27T04:45:04;10.70;96.90
212;DHT22;16228;48.800;9.002;2023-05-27T04:47:31;10.70;96.90
212;DHT22;16228;48.800;9.002;2023-05-27T04:49:59;10.70;96.90
212;DHT22;16228;48.800;9.002;2023-05-27T04:52:27;10.90;96.90
212;DHT22;16228;48.800;9.002;2023-05-27T04:54:54;11.00;96.90
212;DHT22;16228;48.800;9.002;2023-05-27T04:57:21;11.10;96.90
212;DHT22;16228;48.800;9.002;2023-05-27T04:59:48;11.20;96.90
212;DHT22;16228;48.800;9.002;2023-05-27T05:02:45;11.30;96.90
212;DHT22;16228;48.800;9.002;2023-05-27T05:05:13;11.40;96.90
212;DHT22;16228;48.800;9.002;2023-05-27T05:07:41;11.50;96.90
212;DHT22;16228;48.800;9.002;2023-05-27T05:10:10;11.60;96.90
212;DHT22;16228;48.800;9.002;2023-05-27T05:12:37;11.70;96.90
212;DHT22;16228;48.800;9.002;2023-05-27T05:15:06;11.90;96.90
212;DHT22;16228;48.800;9.002;2023-05-27T05:17:34;12.00;96.90
212;DHT22;16228;48.800;9.002;2023-05-27T05:20:03;12.10;96.90
212;DHT22;16228;48.800;9.002;2023-05-27T05:22:31;12.30;96.90
212;DHT22;16228;48.800;9.002;2023-05-27T05:24:58;12.40;96.90
212;DHT22;16228;48.800;9.002;2023-05-27T05:27:26;12.60;96.90
212;DHT22;16228;48.800;9.002;2023-05-27T05:29:53;12.80;96.90
212;DHT22;16228;48.800;9.002;2023-05-27T05:32:20;13.10;96.90
212;DHT22;16228;48.800;9.002;2023-05-27T05:34:47;13.40;96.90
212;DHT22;16228;48.800;9.002;2023-05-27T05:37:16;13.70;96.90
212;DHT22;16228;48.800;9.002;2023-05-27T05:39:43;14.10;96.90
212;DHT22;16228;48.800;9.002;2023-05-27T05:42:10;14.30;96.90
212;DHT22;16228;48.800;9.002;2023-05-27T05:44:37;14.50;96.90
212;DHT22;16228;48.800;9.002;2023-05-27T05:47:05;14.60;96.90
212;DHT22;16228;48.800;9.002;2023-05-27T05:49:32;14.60;96.90
212;DHT22;16228;48.800;9.002;2023-05-27T05:51:59;14.70;96.90
212;DHT22;16228;48.800;9.002;2023-05-27T05:54:28;14.80;96.90
212;DHT22;16228;48.800;9.002;2023-05-27T05:56:55;14.80;96.90
212;DHT22;16228;48.800;9.002;2023-05-27T05:59:22;14.90;96.90
212;DHT22;16228;48.800;9.002;2023-05-27T06:01:49;14.90;96.90
212;DHT22;16228;48.800;9.002;2023-05-27T06:04:16;14.90;96.90
212;DHT22;16228;48.800;9.002;2023-05-27T06:06:44;15.10;96.90
212;DHT22;16228;48.800;9.002;2023-05-27T06:09:11;15.20;96.90
212;DHT22;16228;48.800;9.002;2023-05-27T06:11:39;15.50;96.90
212;DHT22;16228;48.800;9.002;2023-05-27T06:14:06;15.60;96.90
212;DHT22;16228;48.800;9.002;2023-05-27T06:16:34;15.70;96.90
212;DHT22;16228;48.800;9.002;2023-05-27T06:19:02;15.70;96.90
212;DHT22;16228;48.800;9.002;2023-05-27T06:21:29;15.90;96.90
212;DHT22;16228;48.800;9.002;2023-05-27T06:23:58;16.00;96.90
212;DHT22;16228;48.800;9.002;2023-05-27T06:26:25;16.20;96.90
212;DHT22;16228;48.800;9.002;2023-05-27T06:28:54;16.30;96.90
212;DHT22;16228;48.800;9.002;2023-05-27T06:31:21;16.60;96.90
212;DHT22;16228;48.800;9.002;2023-05-27T06:33:49;16.80;96.90
212;DHT22;16228;48.800;9.002;2023-05-27T06:36:16;16.90;96.90
212;DHT22;16228;48.800;9.002;2023-05-27T06:38:44;17.00;96.90
212;DHT22;16228;48.800;9.002;2023-05-27T06:41:12;17.00;96.90
212;DHT22;16228;48.800;9.002;2023-05-27T06:43:39;17.10;96.90
212;DHT22;16228;48.800;9.002;2023-05-27T06:46:07;17.00;96.90
212;DHT22;16228;48.800;9.002;2023-05-27T06:48:35;17.20;96.90
212;DHT22;16228;48.800;9.002;2023-05-27T06:51:02;17.60;96.90
212;DHT22;16228;48.800;9.002;2023-05-27T06:53:29;18.20;96.90
212;DHT22;16228;48.800;9.002;2023-05-27T06:55:56;19.20;96.40
212;DHT22;16228;48.800;9.002;2023-05-27T06:58:24;20.30;92.90
212;DHT22;16228;48.800;9.002;2023-05-27T07:00:51;21.20;90.20
212;DHT22;16228;48.800;9.002;2023-05-27T07:03:20;22.00;87.20
212;DHT22;16228;48.800;9.002;2023-05-27T07:05:47;22.50;85.70
212;DHT22;16228;48.800;9.002;2023-05-27T07:08:14;22.90;83.30
212;DHT22;16228;48.800;9.002;2023-05-27T07:10:41;23.20;83.40
212;DHT22;16228;48.800;9.002;2023-05-27T07:13:09;23.70;82.50
212;DHT22;16228;48.800;9.002;2023-05-27T07:15:36;23.80;80.60
212;DHT22;16228;48.800;9.002;2023-05-27T07:18:03;24.10;80.70
212;DHT22;16228;48.800;9.002;2023-05-27T07:20:32;24.20;81.40
212;DHT22;16228;48.800;9.002;2023-05-27T07:23:00;24.50;80.40
212;DHT22;16228;48.800;9.002;2023-05-27T07:25:27;24.90;80.30
212;DHT22;16228;48.800;9.002;2023-05-27T07:27:54;25.30;78.10
212;DHT22;16228;48.800;9.002;2023-05-27T07:30:21;25.50;77.20
212;DHT22;16228;48.800;9.002;2023-05-27T07:32:49;25.60;75.30
212;DHT22;16228;48.800;9.002;2023-05-27T07:35:16;25.70;76.50
212;DHT22;16228;48.800;9.002;2023-05-27T07:37:44;25.90;76.60
212;DHT22;16228;48.800;9.002;2023-05-27T07:40:11;26.20;74.70
212;DHT22;16228;48.800;9.002;2023-05-27T07:42:39;26.30;73.60
212;DHT22;16228;48.800;9.002;2023-05-27T07:45:07;26.40;76.30
212;DHT22;16228;48.800;9.002;2023-05-27T07:47:34;26.70;74.00
212;DHT22;16228;48.800;9.002;2023-05-27T07:50:01;26.80;73.40
212;DHT22;16228;48.800;9.002;2023-05-27T07:52:29;26.50;74.40
212;DHT22;16228;48.800;9.002;2023-05-27T07:54:57;26.60;74.10
212;DHT22;16228;48.800;9.002;2023-05-27T07:57:25;26.80;74.10
212;DHT22;16228;48.800;9.002;2023-05-27T07:59:52;26.80;73.90
212;DHT22;16228;48.800;9.002;2023-05-27T08:02:19;26.90;73.20
212;DHT22;16228;48.800;9.002;2023-05-27T08:04:47;27.10;72.10
212;DHT22;16228;48.800;9.002;2023-05-27T08:07:14;27.30;72.00
212;DHT22;16228;48.800;9.002;2023-05-27T08:09:42;27.60;71.90
212;DHT22;16228;48.800;9.002;2023-05-27T08:12:10;27.90;72.60
212;DHT22;16228;48.800;9.002;2023-05-27T08:14:38;28.20;70.10
212;DHT22;16228;48.800;9.002;2023-05-27T08:17:06;28.30;70.80
212;DHT22;16228;48.800;9.002;2023-05-27T08:19:33;28.40;70.50
212;DHT22;16228;48.800;9.002;2023-05-27T08:22:00;28.70;69.80
212;DHT22;16228;48.800;9.002;2023-05-27T08:24:27;29.00;70.00
212;DHT22;16228;48.800;9.002;2023-05-27T08:26:56;29.30;70.10
212;DHT22;16228;48.800;9.002;2023-05-27T08:29:25;29.30;68.50
212;DHT22;16228;48.800;9.002;2023-05-27T08:31:53;29.20;70.70
212;DHT22;16228;48.800;9.002;2023-05-27T08:34:21;29.30;70.10
212;DHT22;16228;48.800;9.002;2023-05-27T08:36:48;29.60;69.20
212;DHT22;16228;48.800;9.002;2023-05-27T08:39:15;29.50;68.00
212;DHT22;16228;48.800;9.002;2023-05-27T08:41:43;29.70;67.90
212;DHT22;16228;48.800;9.002;2023-05-27T08:44:10;30.10;76.30
212;DHT22;16228;48.800;9.002;2023-05-27T08:46:39;29.80;68.60
212;DHT22;16228;48.800;9.002;2023-05-27T08:49:07;29.60;69.30
212;DHT22;16228;48.800;9.002;2023-05-27T08:51:36;29.50;72.10
212;DHT22;16228;48.800;9.002;2023-05-27T08:54:07;29.60;71.20
212;DHT22;16228;48.800;9.002;2023-05-27T08:56:35;30.00;73.50
212;DHT22;16228;48.800;9.002;2023-05-27T08:59:02;30.50;71.10
212;DHT22;16228;48.800;9.002;2023-05-27T09:01:30;31.00;68.50
212;DHT22;16228;48.800;9.002;2023-05-27T09:04:00;31.50;66.70
212;DHT22;16228;48.800;9.002;2023-05-27T09:06:27;31.60;64.80
212;DHT22;16228;48.800;9.002;2023-05-27T09:08:54;31.70;65.50
212;DHT22;16228;48.800;9.002;2023-05-27T09:11:23;32.00;66.90
212;DHT22;16228;48.800;9.002;2023-05-27T09:13:53;32.00;63.00
212;DHT22;16228;48.800;9.002;2023-05-27T09:16:21;32.20;62.90
212;DHT22;16228;48.800;9.002;2023-05-27T09:18:48;32.30;63.20
212;DHT22;16228;48.800;9.002;2023-05-27T09:21:17;32.10;61.80
212;DHT22;16228;48.800;9.002;2023-05-27T09:23:45;32.10;65.50
212;DHT22;16228;48.800;9.002;2023-05-27T09:26:12;32.00;64.00
212;DHT22;16228;48.800;9.002;2023-05-27T09:28:40;32.10;63.40
212;DHT22;16228;48.800;9.002;2023-05-27T09:31:08;32.10;66.00
212;DHT22;16228;48.800;9.002;2023-05-27T09:33:37;32.70;63.90
212;DHT22;16228;48.800;9.002;2023-05-27T09:36:06;33.20;64.40
212;DHT22;16228;48.800;9.002;2023-05-27T09:38:36;33.30;63.50
212;DHT22;16228;48.800;9.002;2023-05-27T09:41:03;33.40;64.40
212;DHT22;16228;48.800;9.002;2023-05-27T09:43:30;33.80;62.10
212;DHT22;16228;48.800;9.002;2023-05-27T09:46:00;33.80;61.40
212;DHT22;16228;48.800;9.002;2023-05-27T09:48:29;33.80;62.50
212;DHT22;16228;48.800;9.002;2023-05-27T09:50:58;33.80;61.60
212;DHT22;16228;48.800;9.002;2023-05-27T09:53:26;33.80;59.90
212;DHT22;16228;48.800;9.002;2023-05-27T09:55:55;33.90;62.10
212;DHT22;16228;48.800;9.002;2023-05-27T09:58:23;33.70;61.30
212;DHT22;16228;48.800;9.002;2023-05-27T10:00:51;33.70;62.60
212;DHT22;16228;48.800;9.002;2023-05-27T10:03:21;33.90;61.30
212;DHT22;16228;48.800;9.002;2023-05-27T10:05:50;34.00;61.10
212;DHT22;16228;48.800;9.002;2023-05-27T10:08:17;34.30;60.60
212;DHT22;16228;48.800;9.002;2023-05-27T10:10:45;34.20;61.40
212;DHT22;16228;48.800;9.002;2023-05-27T10:13:15;34.10;59.70
212;DHT22;16228;48.800;9.002;2023-05-27T10:15:46;34.10;60.00
212;DHT22;16228;48.800;9.002;2023-05-27T10:18:22;34.00;61.30
212;DHT22;16228;48.800;9.002;2023-05-27T10:20:50;33.90;60.60
212;DHT22;16228;48.800;9.002;2023-05-27T10:23:20;34.10;59.60
212;DHT22;16228;48.800;9.002;2023-05-27T10:25:49;33.80;60.70
212;DHT22;16228;48.800;9.002;2023-05-27T10:28:28;34.00;62.20
212;DHT22;16228;48.800;9.002;2023-05-27T10:31:04;34.40;60.50
212;DHT22;16228;48.800;9.002;2023-05-27T10:33:33;34.50;61.60
212;DHT22;16228;48.800;9.002;2023-05-27T10:36:06;34.50;60.70
212;DHT22;16228;48.800;9.002;2023-05-27T10:38:34;34.60;60.80
212;DHT22;16228;48.800;9.002;2023-05-27T10:41:03;34.60;59.70
212;DHT22;16228;48.800;9.002;2023-05-27T10:43:33;34.60;61.00
212;DHT22;16228;48.800;9.002;2023-05-27T10:46:04;34.60;60.30
212;DHT22;16228;48.800;9.002;2023-05-27T10:48:33;34.90;60.70
212;DHT22;16228;48.800;9.002;2023-05-27T10:51:01;35.30;59.80
212;DHT22;16228;48.800;9.002;2023-05-27T10:53:29;35.30;58.60
212;DHT22;16228;48.800;9.002;2023-05-27T10:55:59;35.10;59.70
212;DHT22;16228;48.800;9.002;2023-05-27T10:58:26;35.00;58.90
212;DHT22;16228;48.800;9.002;2023-05-27T11:00:55;34.90;59.00
212;DHT22;16228;48.800;9.002;2023-05-27T11:03:24;35.00;61.00
212;DHT22;16228;48.800;9.002;2023-05-27T11:05:59;35.20;60.40
212;DHT22;16228;48.800;9.002;2023-05-27T11:08:27;35.30;59.30
212;DHT22;16228;48.800;9.002;2023-05-27T11:10:59;35.20;59.20
212;DHT22;16228;48.800;9.002;2023-05-27T11:13:33;34.70;59.40
212;DHT22;16228;48.800;9.002;2023-05-27T11:16:04;34.70;60.40
212;DHT22;16228;48.800;9.002;2023-05-27T11:18:38;35.00;60.00
212;DHT22;16228;48.800;9.002;2023-05-27T11:21:08;34.60;59.10
212;DHT22;16228;48.800;9.002;2023-05-27T11:23:36;34.70;61.40
212;DHT22;16228;48.800;9.002;2023-05-27T11:26:11;34.60;61.10
212;DHT22;16228;48.800;9.002;2023-05-27T11:28:45;34.20;60.20
212;DHT22;16228;48.800;9.002;2023-05-27T11:31:14;34.40;61.60
212;DHT22;16228;48.800;9.002;2023-05-27T11:33:42;35.20;60.10
212;DHT22;16228;48.800;9.002;2023-05-27T11:36:12;35.50;57.30
212;DHT22;16228;48.800;9.002;2023-05-27T11:38:49;35.70;57.40
212;DHT22;16228;48.800;9.002;2023-05-27T11:41:16;35.80;57.40
212;DHT22;16228;48.800;9.002;2023-05-27T11:43:51;35.90;58.90
212;DHT22;16228;48.800;9.002;2023-05-27T11:46:20;35.70;57.30
212;DHT22;16228;48.800;9.002;2023-05-27T11:48:48;35.70;57.80
212;DHT22;16228;48.800;9.002;2023-05-27T11:51:15;35.80;56.50
212;DHT22;16228;48.800;9.002;2023-05-27T11:53:45;35.80;56.20
212;DHT22;16228;48.800;9.002;2023-05-27T11:56:12;35.60;56.40
212;DHT22;16228;48.800;9.002;2023-05-27T11:58:40;35.50;57.30
212;DHT22;16228;48.800;9.002;2023-05-27T12:01:07;35.70;57.10
212;DHT22;16228;48.800;9.002;2023-05-27T12:03:35;35.70;56.30
212;DHT22;16228;48.800;9.002;2023-05-27T12:06:03;35.80;55.30
212;DHT22;16228;48.800;9.002;2023-05-27T12:08:30;35.60;56.80
212;DHT22;16228;48.800;9.002;2023-05-27T12:10:57;35.70;56.40
212;DHT22;16228;48.800;9.002;2023-05-27T12:13:24;35.80;56.50
212;DHT22;16228;48.800;9.002;2023-05-27T12:15:53;36.10;56.90
212;DHT22;16228;48.800;9.002;2023-05-27T12:18:20;36.30;56.30
212;DHT22;16228;48.800;9.002;2023-05-27T12:20:49;35.80;56.40
212;DHT22;16228;48.800;9.002;2023-05-27T12:23:16;35.70;57.10
212;DHT22;16228;48.800;9.002;2023-05-27T12:25:44;35.70;55.80
212;DHT22;16228;48.800;9.002;2023-05-27T12:28:11;35.50;56.30
212;DHT22;16228;48.800;9.002;2023-05-27T12:30:38;35.50;58.40
212;DHT22;16228;48.800;9.002;2023-05-27T12:33:06;36.00;58.20
212;DHT22;16228;48.800;9.002;2023-05-27T12:35:33;36.40;56.00
212;DHT22;16228;48.800;9.002;2023-05-27T12:38:02;36.10;54.20
212;DHT22;16228;48.800;9.002;2023-05-27T12:40:29;35.80;57.00
212;DHT22;16228;48.800;9.002;2023-05-27T12:42:56;35.90;57.10
212;DHT22;16228;48.800;9.002;2023-05-27T12:45:24;35.90;55.70
212;DHT22;16228;48.800;9.002;2023-05-27T12:47:51;35.70;56.80
212;DHT22;16228;48.800;9.002;2023-05-27T12:50:19;35.90;55.90
212;DHT22;16228;48.800;9.002;2023-05-27T12:52:47;36.10;55.10
212;DHT22;16228;48.800;9.002;2023-05-27T12:55:18;36.30;54.90
212;DHT22;16228;48.800;9.002;2023-05-27T12:57:46;36.30;54.60
212;DHT22;16228;48.800;9.002;2023-05-27T13:00:14;36.10;55.50
212;DHT22;16228;48.800;9.002;2023-05-27T13:02:42;35.70;55.60
212;DHT22;16228;48.800;9.002;2023-05-27T13:05:10;35.20;55.00
212;DHT22;16228;48.800;9.002;2023-05-27T13:07:37;35.20;56.00
212;DHT22;16228;48.800;9.002;2023-05-27T13:10:08;35.30;56.40
212;DHT22;16228;48.800;9.002;2023-05-27T13:12:40;35.40;55.20
212;DHT22;16228;48.800;9.002;2023-05-27T13:15:08;35.10;57.20
212;DHT22;16228;48.800;9.002;2023-05-27T13:17:36;35.30;56.40
212;DHT22;16228;48.800;9.002;2023-05-27T13:20:03;35.50;57.10
212;DHT22;16228;48.800;9.002;2023-05-27T13:22:31;35.30;54.70
212;DHT22;16228;48.800;9.002;2023-05-27T13:24:58;35.10;56.00
212;DHT22;16228;48.800;9.002;2023-05-27T13:27:25;34.40;55.30
212;DHT22;16228;48.800;9.002;2023-05-27T13:29:54;34.20;56.80
212;DHT22;16228;48.800;9.002;2023-05-27T13:32:21;34.20;56.40
212;DHT22;16228;48.800;9.002;2023-05-27T13:34:49;34.30;59.10
212;DHT22;16228;48.800;9.002;2023-05-27T13:37:17;34.20;56.30
212;DHT22;16228;48.800;9.002;2023-05-27T13:39:44;34.30;56.00
212;DHT22;16228;48.800;9.002;2023-05-27T13:42:11;34.30;56.40
212;DHT22;16228;48.800;9.002;2023-05-27T13:44:38;33.80;58.00
212;DHT22;16228;48.800;9.002;2023-05-27T13:47:07;33.60;57.80
212;DHT22;16228;48.800;9.002;2023-05-27T13:49:34;33.10;58.50
212;DHT22;16228;48.800;9.002;2023-05-27T13:52:02;32.10;59.20
212;DHT22;16228;48.800;9.002;2023-05-27T13:54:29;31.10;60.80
212;DHT22;16228;48.800;9.002;2023-05-27T13:56:56;30.30;62.40
212;DHT22;16228;48.800;9.002;2023-05-27T13:59:23;29.70;63.10
212;DHT22;16228;48.800;9.002;2023-05-27T14:01:50;29.20;64.20
212;DHT22;16228;48.800;9.002;2023-05-27T14:04:19;28.60;64.60
212;DHT22;16228;48.800;9.002;2023-05-27T14:06:46;28.40;66.50
212;DHT22;16228;48.800;9.002;2023-05-27T14:09:13;28.20;68.10
212;DHT22;16228;48.800;9.002;2023-05-27T14:11:41;28.10;68.40
212;DHT22;16228;48.800;9.002;2023-05-27T14:14:08;28.00;69.20
212;DHT22;16228;48.800;9.002;2023-05-27T14:16:35;28.00;68.00
212;DHT22;16228;48.800;9.002;2023-05-27T14:19:02;27.90;67.10
212;DHT22;16228;48.800;9.002;2023-05-27T14:21:31;27.80;67.10
212;DHT22;16228;48.800;9.002;2023-05-27T14:23:58;27.70;67.50
212;DHT22;16228;48.800;9.002;2023-05-27T14:26:26;27.70;69.00
212;DHT22;16228;48.800;9.002;2023-05-27T14:28:54;27.50;67.30
212;DHT22;16228;48.800;9.002;2023-05-27T14:31:21;27.40;69.20
212;DHT22;16228;48.800;9.002;2023-05-27T14:33:48;27.30;68.20
212;DHT22;16228;48.800;9.002;2023-05-27T14:36:15;27.20;67.20
212;DHT22;16228;48.800;9.002;2023-05-27T14:38:44;27.00;67.20
212;DHT22;16228;48.800;9.002;2023-05-27T14:41:11;26.90;68.00
212;DHT22;16228;48.800;9.002;2023-05-27T14:43:38;26.70;67.80
212;DHT22;16228;48.800;9.002;2023-05-27T14:46:05;26.50;68.90
212;DHT22;16228;48.800;9.002;2023-05-27T14:48:33;26.50;68.90
212;DHT22;16228;48.800;9.002;2023-05-27T14:51:01;26.40;68.90
212;DHT22;16228;48.800;9.002;2023-05-27T14:53:28;26.20;67.90
212;DHT22;16228;48.800;9.002;2023-05-27T14:55:57;26.00;68.70
212;DHT22;16228;48.800;9.002;2023-05-27T14:58:24;26.10;69.70
212;DHT22;16228;48.800;9.002;2023-05-27T15:00:51;26.10;69.70
212;DHT22;16228;48.800;9.002;2023-05-27T15:03:18;26.20;68.50
212;DHT22;16228;48.800;9.002;2023-05-27T15:05:45;26.10;67.30
212;DHT22;16228;48.800;9.002;2023-05-27T15:08:13;26.00;67.80
212;DHT22;16228;48.800;9.002;2023-05-27T15:10:41;25.90;67.00
212;DHT22;16228;48.800;9.002;2023-05-27T15:13:10;25.90;68.10
212;DHT22;16228;48.800;9.002;2023-05-27T15:15:38;25.90;67.00
212;DHT22;16228;48.800;9.002;2023-05-27T15:18:06;25.70;67.30
212;DHT22;16228;48.800;9.002;2023-05-27T15:20:33;25.60;67.50
212;DHT22;16228;48.800;9.002;2023-05-27T15:23:01;25.60;65.50
212;DHT22;16228;48.800;9.002;2023-05-27T15:25:28;25.60;67.10
212;DHT22;16228;48.800;9.002;2023-05-27T15:27:55;25.40;65.30
212;DHT22;16228;48.800;9.002;2023-05-27T15:30:24;25.40;66.30
212;DHT22;16228;48.800;9.002;2023-05-27T15:32:52;25.30;65.90
212;DHT22;16228;48.800;9.002;2023-05-27T15:35:19;25.20;64.60
212;DHT22;16228;48.800;9.002;2023-05-27T15:37:46;25.10;66.00
212;DHT22;16228;48.800;9.002;2023-05-27T15:40:14;25.10;67.00
212;DHT22;16228;48.800;9.002;2023-05-27T15:42:42;25.10;67.80
212;DHT22;16228;48.800;9.002;2023-05-27T15:45:09;25.10;65.60
212;DHT22;16228;48.800;9.002;2023-05-27T15:47:38;25.00;66.80
212;DHT22;16228;48.800;9.002;2023-05-27T15:50:06;24.90;66.30
212;DHT22;16228;48.800;9.002;2023-05-27T15:52:33;24.90;67.20
212;DHT22;16228;48.800;9.002;2023-05-27T15:55:01;24.90;66.90
212;DHT22;16228;48.800;9.002;2023-05-27T15:57:28;24.90;66.50
212;DHT22;16228;48.800;9.002;2023-05-27T15:59:55;24.80;66.40
212;DHT22;16228;48.800;9.002;2023-05-27T16:02:22;24.70;65.80
212;DHT22;16228;48.800;9.002;2023-05-27T16:04:51;24.60;66.90
212;DHT22;16228;48.800;9.002;2023-05-27T16:07:18;24.60;65.80